Artesian, South Dakota
Current Conditions -  °F | °C
As of 1:53 AM on Monday 22 Dec 2014 (Local Time) from KMHE Reporting Station
Light Rain Light Rain  
Wind Chill: 28°   Ceiling: 3800
Heat Index: 37°   Visibility: 5mi
Dew Point: 36°   Wind: 14mph
Humidity: 96%   Direction: 170°S
Pressure: 29.46"   Gusts: NA
Location:  44.01°N, 97.92°W
Report Text: KMHE 220753Z AUTO 17012KT 5SM -RA BR FEW005 BKN038 OVC049 03/02 A2946 RMK AO2 SLP986 P0000 T00280022
Loading
Personal Weather Stations






























Interactive Weather Map New forecast layout! Learn more

10-Day Weather Forecast

Advertisements
Track Severe Weather on mobile